<?xml version="1.0" encoding="UTF-8" standalone="no" ?>
<gpx xmlns="http://www.topografix.com/GPX/1/1" xmlns:xsi="http://www.w3.org/2001/XMLSchema-instance" xsi:schemaLocation="http://www.topografix.com/GPX/1/1 http://www.topografix.com/GPX/1/1/gpx.xsd" version="1.1" creator="VisuGPX - https://www.visugpx.com">
  <metadata>
    <name>De Meillerie à Salvigny</name>
    <desc><![CDATA[Randonnée en Haute-Savoie]]></desc>
  </metadata>
  <trk>
    <name><![CDATA[ACTIVE LOG: 28 JUL 2015 12:41]]></name>
    <trkseg>
      <trkpt lat="46.19496" lon="6.80444">
        <ele>1917.97</ele>
        <time>2015-07-28T10:42:21Z</time>
      </trkpt>
      <trkpt lat="46.19516" lon="6.80412">
        <ele>1904.51</ele>
        <time>2015-07-28T10:43:26Z</time>
      </trkpt>
      <trkpt lat="46.19537" lon="6.80353">
        <ele>1889.61</ele>
        <time>2015-07-28T10:44:31Z</time>
      </trkpt>
      <trkpt lat="46.19544" lon="6.80305">
        <ele>1875.67</ele>
        <time>2015-07-28T10:45:36Z</time>
      </trkpt>
      <trkpt lat="46.1956" lon="6.80264">
        <ele>1861.73</ele>
        <time>2015-07-28T10:46:41Z</time>
      </trkpt>
      <trkpt lat="46.1955" lon="6.80227">
        <ele>1846.83</ele>
        <time>2015-07-28T10:47:46Z</time>
      </trkpt>
      <trkpt lat="46.19565" lon="6.80147">
        <ele>1837.22</ele>
        <time>2015-07-28T10:48:51Z</time>
      </trkpt>
      <trkpt lat="46.19558" lon="6.80097">
        <ele>1826.64</ele>
        <time>2015-07-28T10:49:56Z</time>
      </trkpt>
      <trkpt lat="46.19536" lon="6.80072">
        <ele>1816.55</ele>
        <time>2015-07-28T10:51:01Z</time>
      </trkpt>
      <trkpt lat="46.19513" lon="6.80068">
        <ele>1811.26</ele>
        <time>2015-07-28T10:52:06Z</time>
      </trkpt>
      <trkpt lat="46.19505" lon="6.80076">
        <ele>1813.66</ele>
        <time>2015-07-28T10:53:11Z</time>
      </trkpt>
      <trkpt lat="46.19484" lon="6.80116">
        <ele>1816.55</ele>
        <time>2015-07-28T10:54:16Z</time>
      </trkpt>
      <trkpt lat="46.19471" lon="6.80179">
        <ele>1823.76</ele>
        <time>2015-07-28T10:55:21Z</time>
      </trkpt>
      <trkpt lat="46.19452" lon="6.80234">
        <ele>1836.26</ele>
        <time>2015-07-28T10:56:26Z</time>
      </trkpt>
      <trkpt lat="46.19425" lon="6.80276">
        <ele>1845.87</ele>
        <time>2015-07-28T10:57:31Z</time>
      </trkpt>
      <trkpt lat="46.1939" lon="6.80307">
        <ele>1854.52</ele>
        <time>2015-07-28T10:58:36Z</time>
      </trkpt>
      <trkpt lat="46.19375" lon="6.80332">
        <ele>1860.77</ele>
        <time>2015-07-28T10:59:41Z</time>
      </trkpt>
      <trkpt lat="46.1934" lon="6.80376">
        <ele>1871.34</ele>
        <time>2015-07-28T11:00:46Z</time>
      </trkpt>
      <trkpt lat="46.19307" lon="6.80394">
        <ele>1878.55</ele>
        <time>2015-07-28T11:01:51Z</time>
      </trkpt>
      <trkpt lat="46.1927" lon="6.80403">
        <ele>1887.69</ele>
        <time>2015-07-28T11:02:56Z</time>
      </trkpt>
      <trkpt lat="46.19228" lon="6.804">
        <ele>1896.82</ele>
        <time>2015-07-28T11:04:01Z</time>
      </trkpt>
      <trkpt lat="46.19209" lon="6.80399">
        <ele>1897.3</ele>
        <time>2015-07-28T11:05:06Z</time>
      </trkpt>
      <trkpt lat="46.19153" lon="6.80425">
        <ele>1898.26</ele>
        <time>2015-07-28T11:06:11Z</time>
      </trkpt>
      <trkpt lat="46.19101" lon="6.8048">
        <ele>1898.74</ele>
        <time>2015-07-28T11:07:16Z</time>
      </trkpt>
      <trkpt lat="46.19045" lon="6.80507">
        <ele>1903.07</ele>
        <time>2015-07-28T11:08:21Z</time>
      </trkpt>
      <trkpt lat="46.18979" lon="6.80502">
        <ele>1912.68</ele>
        <time>2015-07-28T11:09:26Z</time>
      </trkpt>
      <trkpt lat="46.18943" lon="6.80524">
        <ele>1920.85</ele>
        <time>2015-07-28T11:10:31Z</time>
      </trkpt>
      <trkpt lat="46.18893" lon="6.80535">
        <ele>1927.58</ele>
        <time>2015-07-28T11:11:36Z</time>
      </trkpt>
      <trkpt lat="46.18882" lon="6.80533">
        <ele>1929.98</ele>
        <time>2015-07-28T11:12:41Z</time>
      </trkpt>
      <trkpt lat="46.18867" lon="6.80535">
        <ele>1933.35</ele>
        <time>2015-07-28T11:13:46Z</time>
      </trkpt>
      <trkpt lat="46.18826" lon="6.80533">
        <ele>1945.36</ele>
        <time>2015-07-28T11:14:51Z</time>
      </trkpt>
      <trkpt lat="46.18783" lon="6.80532">
        <ele>1953.54</ele>
        <time>2015-07-28T11:15:56Z</time>
      </trkpt>
      <trkpt lat="46.18737" lon="6.80558">
        <ele>1953.54</ele>
        <time>2015-07-28T11:17:01Z</time>
      </trkpt>
      <trkpt lat="46.18691" lon="6.80613">
        <ele>1956.42</ele>
        <time>2015-07-28T11:18:06Z</time>
      </trkpt>
      <trkpt lat="46.18656" lon="6.80683">
        <ele>1964.59</ele>
        <time>2015-07-28T11:19:11Z</time>
      </trkpt>
      <trkpt lat="46.18604" lon="6.80741">
        <ele>1966.03</ele>
        <time>2015-07-28T11:20:16Z</time>
      </trkpt>
      <trkpt lat="46.18546" lon="6.80781">
        <ele>1972.28</ele>
        <time>2015-07-28T11:21:21Z</time>
      </trkpt>
      <trkpt lat="46.18509" lon="6.80806">
        <ele>1979.49</ele>
        <time>2015-07-28T11:22:26Z</time>
      </trkpt>
      <trkpt lat="46.18474" lon="6.80827">
        <ele>1989.59</ele>
        <time>2015-07-28T11:23:31Z</time>
      </trkpt>
      <trkpt lat="46.18443" lon="6.80787">
        <ele>1999.2</ele>
        <time>2015-07-28T11:24:36Z</time>
      </trkpt>
      <trkpt lat="46.18417" lon="6.80775">
        <ele>2008.81</ele>
        <time>2015-07-28T11:25:41Z</time>
      </trkpt>
      <trkpt lat="46.18381" lon="6.80834">
        <ele>2015.54</ele>
        <time>2015-07-28T11:26:46Z</time>
      </trkpt>
      <trkpt lat="46.1835" lon="6.80865">
        <ele>2021.31</ele>
        <time>2015-07-28T11:27:51Z</time>
      </trkpt>
      <trkpt lat="46.18303" lon="6.80898">
        <ele>2031.4</ele>
        <time>2015-07-28T11:28:56Z</time>
      </trkpt>
      <trkpt lat="46.18261" lon="6.80847">
        <ele>2038.61</ele>
        <time>2015-07-28T11:30:01Z</time>
      </trkpt>
      <trkpt lat="46.1822" lon="6.80872">
        <ele>2041.98</ele>
        <time>2015-07-28T11:31:06Z</time>
      </trkpt>
      <trkpt lat="46.182" lon="6.80897">
        <ele>2045.34</ele>
        <time>2015-07-28T11:32:11Z</time>
      </trkpt>
      <trkpt lat="46.18155" lon="6.80932">
        <ele>2053.51</ele>
        <time>2015-07-28T11:33:16Z</time>
      </trkpt>
      <trkpt lat="46.18124" lon="6.80954">
        <ele>2063.61</ele>
        <time>2015-07-28T11:34:21Z</time>
      </trkpt>
      <trkpt lat="46.18094" lon="6.80993">
        <ele>2071.3</ele>
        <time>2015-07-28T11:35:26Z</time>
      </trkpt>
      <trkpt lat="46.18107" lon="6.81022">
        <ele>2075.14</ele>
        <time>2015-07-28T11:36:31Z</time>
      </trkpt>
      <trkpt lat="46.18106" lon="6.81022">
        <ele>2074.18</ele>
        <time>2015-07-28T11:37:36Z</time>
      </trkpt>
      <trkpt lat="46.18119" lon="6.8104">
        <ele>2075.62</ele>
        <time>2015-07-28T11:38:41Z</time>
      </trkpt>
      <trkpt lat="46.18154" lon="6.81107">
        <ele>2077.07</ele>
        <time>2015-07-28T11:39:46Z</time>
      </trkpt>
      <trkpt lat="46.18198" lon="6.81173">
        <ele>2081.39</ele>
        <time>2015-07-28T11:40:51Z</time>
      </trkpt>
      <trkpt lat="46.18207" lon="6.81199">
        <ele>2084.28</ele>
        <time>2015-07-28T11:41:56Z</time>
      </trkpt>
      <trkpt lat="46.18187" lon="6.8116">
        <ele>2079.47</ele>
        <time>2015-07-28T11:43:01Z</time>
      </trkpt>
      <trkpt lat="46.1814" lon="6.81095">
        <ele>2076.1</ele>
        <time>2015-07-28T11:44:06Z</time>
      </trkpt>
      <trkpt lat="46.18096" lon="6.81002">
        <ele>2072.26</ele>
        <time>2015-07-28T11:45:11Z</time>
      </trkpt>
      <trkpt lat="46.18086" lon="6.8093">
        <ele>2073.7</ele>
        <time>2015-07-28T11:46:16Z</time>
      </trkpt>
      <trkpt lat="46.18086" lon="6.80866">
        <ele>2081.39</ele>
        <time>2015-07-28T11:47:21Z</time>
      </trkpt>
      <trkpt lat="46.18091" lon="6.80782">
        <ele>2085.72</ele>
        <time>2015-07-28T11:48:26Z</time>
      </trkpt>
      <trkpt lat="46.18117" lon="6.80702">
        <ele>2079.95</ele>
        <time>2015-07-28T11:49:31Z</time>
      </trkpt>
      <trkpt lat="46.18147" lon="6.80613">
        <ele>2078.99</ele>
        <time>2015-07-28T11:50:36Z</time>
      </trkpt>
      <trkpt lat="46.18131" lon="6.80565">
        <ele>2089.08</ele>
        <time>2015-07-28T11:51:41Z</time>
      </trkpt>
      <trkpt lat="46.18141" lon="6.80509">
        <ele>2102.06</ele>
        <time>2015-07-28T11:52:46Z</time>
      </trkpt>
      <trkpt lat="46.18167" lon="6.80447">
        <ele>2113.12</ele>
        <time>2015-07-28T11:53:51Z</time>
      </trkpt>
      <trkpt lat="46.18191" lon="6.804">
        <ele>2124.65</ele>
        <time>2015-07-28T11:54:56Z</time>
      </trkpt>
      <trkpt lat="46.18147" lon="6.80408">
        <ele>2135.71</ele>
        <time>2015-07-28T11:56:01Z</time>
      </trkpt>
      <trkpt lat="46.181" lon="6.80424">
        <ele>2148.2</ele>
        <time>2015-07-28T11:57:06Z</time>
      </trkpt>
      <trkpt lat="46.18054" lon="6.80445">
        <ele>2158.78</ele>
        <time>2015-07-28T11:58:11Z</time>
      </trkpt>
      <trkpt lat="46.18013" lon="6.80466">
        <ele>2169.35</ele>
        <time>2015-07-28T11:59:16Z</time>
      </trkpt>
      <trkpt lat="46.17974" lon="6.805">
        <ele>2179.45</ele>
        <time>2015-07-28T12:00:21Z</time>
      </trkpt>
      <trkpt lat="46.17922" lon="6.80539">
        <ele>2187.14</ele>
        <time>2015-07-28T12:01:26Z</time>
      </trkpt>
      <trkpt lat="46.17891" lon="6.80558">
        <ele>2194.35</ele>
        <time>2015-07-28T12:02:31Z</time>
      </trkpt>
      <trkpt lat="46.1785" lon="6.8054">
        <ele>2200.11</ele>
        <time>2015-07-28T12:03:36Z</time>
      </trkpt>
      <trkpt lat="46.17804" lon="6.80592">
        <ele>2192.42</ele>
        <time>2015-07-28T12:04:41Z</time>
      </trkpt>
      <trkpt lat="46.17748" lon="6.80652">
        <ele>2181.37</ele>
        <time>2015-07-28T12:05:46Z</time>
      </trkpt>
      <trkpt lat="46.1768" lon="6.80657">
        <ele>2168.39</ele>
        <time>2015-07-28T12:06:51Z</time>
      </trkpt>
      <trkpt lat="46.17625" lon="6.80597">
        <ele>2161.66</ele>
        <time>2015-07-28T12:07:56Z</time>
      </trkpt>
      <trkpt lat="46.17592" lon="6.8057">
        <ele>2163.1</ele>
        <time>2015-07-28T12:09:01Z</time>
      </trkpt>
      <trkpt lat="46.17578" lon="6.8057">
        <ele>2162.62</ele>
        <time>2015-07-28T12:10:06Z</time>
      </trkpt>
      <trkpt lat="46.17534" lon="6.80598">
        <ele>2151.09</ele>
        <time>2015-07-28T12:11:11Z</time>
      </trkpt>
      <trkpt lat="46.17475" lon="6.80578">
        <ele>2147.24</ele>
        <time>2015-07-28T12:12:16Z</time>
      </trkpt>
      <trkpt lat="46.17413" lon="6.80558">
        <ele>2152.05</ele>
        <time>2015-07-28T12:13:21Z</time>
      </trkpt>
      <trkpt lat="46.17391" lon="6.80554">
        <ele>2153.01</ele>
        <time>2015-07-28T12:14:26Z</time>
      </trkpt>
      <trkpt lat="46.17387" lon="6.80554">
        <ele>2153.49</ele>
        <time>2015-07-28T12:15:01Z</time>
      </trkpt>
    </trkseg>
  </trk>
</gpx>